Terminal Aerodrome Forecast
Issued by NWS

Home | Current Version | Previous Version | Text Only | Print | Product List | Glossary On
Versions: 1 2 3 4 5 6 7 8 9 10 11 12
000
FTUS45 KGJT 201745
TAFCNY
TAF
KCNY 201745Z 2018/2118 22003KT P6SM VCSH BKN070 BKN090 OVC110
     FM202000 19014KT P6SM -RA SCT040 OVC050
     FM210000 21011KT 3SM -RASN BR OVC015
     FM210500 25010G18KT P6SM VCSH SCT035 BKN070
     FM211100 29017G25KT P6SM VCSH BKN040
     FM211200 30019G27KT P6SM OVC035=

USA.gov is the U.S. government's official web portal to all federal, state and local government web resources and services.